Time;durP1;ratioP1;P1;durP2;ratioP2;P2;SDS_P1;SDS_P2;PMS_P1;PMS_P2;Temp;Humidity;BMP_temperature;BMP_pressure;BME280_temperature;BME280_humidity;BME280_pressure;Samples;Min_cycle;Max_cycle;Signal;HPM_P1;HPM_P2
2023/04/29 00:01:34;;;;;;;2.43;2.20;;;13.80;99.90;;;;;;6129032;23;21803;-75
2023/04/29 00:04:01;;;;;;;2.80;2.47;;;13.80;99.90;;;;;;6138944;23;20532;-75
2023/04/29 00:06:29;;;;;;;2.50;2.30;;;13.80;99.90;;;;;;6133107;23;20473;-75
2023/04/29 00:08:57;;;;;;;4.90;2.70;;;13.90;99.90;;;;;;6131903;23;21124;-75
2023/04/29 00:11:24;;;;;;;3.43;2.70;;;13.80;99.90;;;;;;6130389;23;20438;-75
2023/04/29 00:13:51;;;;;;;2.80;2.60;;;13.80;99.90;;;;;;6142769;23;20477;-75
2023/04/29 00:16:18;;;;;;;2.47;2.37;;;14.00;99.90;;;;;;6137047;23;20487;-75
2023/04/29 00:18:45;;;;;;;2.90;2.60;;;13.80;99.90;;;;;;6143930;23;20523;-75
2023/04/29 00:21:12;;;;;;;3.13;2.90;;;13.80;99.90;;;;;;6135857;23;20434;-75
2023/04/29 00:23:40;;;;;;;2.40;2.20;;;13.80;99.90;;;;;;6131733;23;20968;-75
2023/04/29 00:26:07;;;;;;;2.57;2.37;;;13.80;99.90;;;;;;6141795;23;20540;-75
2023/04/29 00:28:34;;;;;;;2.80;2.60;;;13.80;99.90;;;;;;6127153;23;20438;-75
2023/04/29 00:31:02;;;;;;;2.83;2.60;;;13.80;99.90;;;;;;6128210;23;20853;-75
2023/04/29 00:33:28;;;;;;;3.63;2.60;;;13.80;99.90;;;;;;6132825;23;20458;-75
2023/04/29 00:35:55;;;;;;;3.03;2.83;;;13.80;99.90;;;;;;6128686;23;20487;-75
2023/04/29 00:38:23;;;;;;;3.40;2.70;;;13.80;99.90;;;;;;6142598;23;20465;-75
2023/04/29 00:40:51;;;;;;;3.20;2.90;;;13.80;99.90;;;;;;6137330;23;20446;-75
2023/04/29 00:43:18;;;;;;;2.93;2.73;;;13.80;99.90;;;;;;6145224;23;20457;-75
2023/04/29 00:45:45;;;;;;;10.77;3.17;;;13.70;99.90;;;;;;6132853;23;20498;-75
2023/04/29 00:48:14;;;;;;;5.10;3.00;;;13.70;99.90;;;;;;6133074;23;20483;-75
2023/04/29 00:50:40;;;;;;;2.83;2.63;;;13.70;99.90;;;;;;6133709;23;20435;-75
2023/04/29 00:53:08;;;;;;;2.93;2.73;;;13.70;99.90;;;;;;6136770;23;20520;-75
2023/04/29 00:55:36;;;;;;;3.10;2.90;;;13.60;99.90;;;;;;6144018;23;20522;-75
2023/04/29 00:58:05;;;;;;;2.93;2.60;;;13.60;99.90;;;;;;6128695;23;20458;-75
2023/04/29 01:00:33;;;;;;;3.20;3.00;;;13.60;99.90;;;;;;6142229;23;21025;-75
2023/04/29 01:03:00;;;;;;;3.30;3.03;;;13.60;99.90;;;;;;6134927;23;20524;-75
2023/04/29 01:05:27;;;;;;;2.80;2.60;;;13.60;99.90;;;;;;6134332;23;20469;-75
2023/04/29 01:08:04;;;;;;;3.37;3.03;;;13.60;99.90;;;;;;6130741;23;20673;-75
2023/04/29 01:10:39;;;;;;;3.00;2.70;;;13.60;99.90;;;;;;6135957;23;20470;-75
2023/04/29 01:13:14;;;;;;;2.70;2.50;;;13.60;99.90;;;;;;6122400;23;20527;-75
2023/04/29 01:15:49;;;;;;;5.03;3.43;;;13.60;99.90;;;;;;6132169;23;20438;-75
2023/04/29 01:18:24;;;;;;;3.10;2.90;;;13.60;99.90;;;;;;6137447;23;20840;-75
2023/04/29 01:20:51;;;;;;;3.10;2.90;;;13.60;99.90;;;;;;6141870;23;20519;-75
2023/04/29 01:23:18;;;;;;;3.17;2.97;;;13.60;99.90;;;;;;6132985;23;20529;-75
2023/04/29 01:25:47;;;;;;;3.90;3.60;;;13.60;99.90;;;;;;6139580;23;20442;-75
2023/04/29 01:28:24;;;;;;;3.33;2.93;;;13.60;99.90;;;;;;6127423;23;20438;-75
2023/04/29 01:31:00;;;;;;;3.13;2.90;;;13.60;99.90;;;;;;6141363;23;20443;-75
2023/04/29 01:33:40;;;;;;;3.10;2.83;;;13.60;99.90;;;;;;6140867;23;20518;-75
2023/04/29 01:36:16;;;;;;;3.10;2.80;;;13.60;99.90;;;;;;6134461;23;20434;-75
2023/04/29 01:38:51;;;;;;;3.57;3.37;;;13.50;99.90;;;;;;6142303;23;20481;-75
2023/04/29 01:41:29;;;;;;;3.37;3.00;;;13.50;99.90;;;;;;6137840;23;20472;-75
2023/04/29 01:43:58;;;;;;;3.87;3.13;;;13.60;99.90;;;;;;6132921;23;20477;-75
2023/04/29 01:46:26;;;;;;;2.97;2.77;;;13.50;99.90;;;;;;6132417;23;20544;-75
2023/04/29 01:48:54;;;;;;;3.33;3.10;;;13.50;99.90;;;;;;6135276;23;20438;-75
2023/04/29 01:51:20;;;;;;;3.30;3.00;;;13.50;99.90;;;;;;6137218;23;20525;-74
2023/04/29 01:53:48;;;;;;;3.85;3.65;;;13.50;99.90;;;;;;6131871;23;20638;-75
2023/04/29 01:56:15;;;;;;;5.63;3.10;;;13.40;99.90;;;;;;6140174;23;20266;-75
2023/04/29 01:58:43;;;;;;;2.93;2.73;;;13.40;99.90;;;;;;6131586;23;20518;-75
2023/04/29 02:01:11;;;;;;;3.87;3.53;;;13.40;99.90;;;;;;6148592;23;20527;-75
2023/04/29 02:03:38;;;;;;;3.33;3.13;;;13.50;99.90;;;;;;6134224;23;20451;-75
2023/04/29 02:06:06;;;;;;;3.57;3.30;;;13.50;99.90;;;;;;6134612;23;20434;-75
2023/04/29 02:08:33;;;;;;;3.70;3.40;;;13.50;99.90;;;;;;6127207;23;20454;-75
2023/04/29 02:11:00;;;;;;;4.20;3.80;;;13.50;99.90;;;;;;6145625;23;20916;-75
2023/04/29 02:13:27;;;;;;;4.00;3.67;;;13.50;99.90;;;;;;6130393;23;20456;-75
2023/04/29 02:15:56;;;;;;;4.00;3.30;;;13.50;99.90;;;;;;6132992;23;20511;-75
2023/04/29 02:18:23;;;;;;;4.23;3.83;;;13.40;99.90;;;;;;6143568;23;20903;-75
2023/04/29 02:20:50;;;;;;;3.57;3.37;;;13.40;99.90;;;;;;6140727;23;20464;-75
2023/04/29 02:23:17;;;;;;;3.77;3.17;;;13.40;99.90;;;;;;6142033;23;20453;-75
2023/04/29 02:25:44;;;;;;;3.50;3.27;;;13.40;99.90;;;;;;6127487;23;20849;-75
2023/04/29 02:28:11;;;;;;;3.47;3.17;;;13.60;99.90;;;;;;6138616;23;20452;-75
2023/04/29 02:30:39;;;;;;;3.50;3.20;;;13.40;99.90;;;;;;6144353;23;20995;-75
2023/04/29 02:33:07;;;;;;;3.87;3.67;;;13.30;99.90;;;;;;6144226;23;20463;-75
2023/04/29 02:35:34;;;;;;;3.90;3.60;;;13.30;99.90;;;;;;6132363;23;20440;-75
2023/04/29 02:38:01;;;;;;;4.07;3.67;;;13.30;99.90;;;;;;6147039;23;20418;-74
2023/04/29 02:40:28;;;;;;;3.87;3.57;;;13.30;99.90;;;;;;6134323;23;20477;-75
2023/04/29 02:42:55;;;;;;;4.07;3.77;;;13.20;99.90;;;;;;6142618;23;20487;-75
2023/04/29 02:45:22;;;;;;;4.40;4.10;;;13.20;99.90;;;;;;6138143;23;20449;-75
2023/04/29 02:47:49;;;;;;;4.13;3.83;;;13.20;99.90;;;;;;6136955;23;20521;-75
2023/04/29 02:50:18;;;;;;;4.20;3.80;;;13.10;99.90;;;;;;6147149;23;20437;-75
2023/04/29 02:52:45;;;;;;;4.53;4.13;;;13.10;99.90;;;;;;6145945;23;20442;-75
2023/04/29 02:55:12;;;;;;;4.40;4.00;;;13.00;99.90;;;;;;6132645;23;20441;-75
2023/04/29 02:57:40;;;;;;;3.97;3.67;;;13.10;99.90;;;;;;6145924;23;21154;-75
2023/04/29 03:00:08;;;;;;;4.37;4.07;;;13.00;99.90;;;;;;6146314;23;20547;-75
2023/04/29 03:02:36;;;;;;;4.57;4.27;;;13.00;99.90;;;;;;6132513;23;20517;-75
2023/04/29 03:05:03;;;;;;;4.63;4.32;;;13.00;99.90;;;;;;6140059;23;20460;-75
2023/04/29 03:07:32;;;;;;;4.37;3.90;;;12.90;99.90;;;;;;6136982;23;20187;-75
2023/04/29 03:09:59;;;;;;;4.10;3.80;;;12.90;99.90;;;;;;6140028;23;20901;-75
2023/04/29 03:12:26;;;;;;;4.30;4.00;;;12.90;99.90;;;;;;6137497;23;20430;-75
2023/04/29 03:14:53;;;;;;;4.40;4.10;;;12.90;99.90;;;;;;6124760;23;20458;-75
2023/04/29 03:17:20;;;;;;;4.50;4.10;;;12.90;99.90;;;;;;6141846;23;20449;-75
2023/04/29 03:19:47;;;;;;;3.93;3.73;;;12.90;99.90;;;;;;6144516;23;20465;-75
2023/04/29 03:22:14;;;;;;;4.10;3.80;;;12.90;99.90;;;;;;6135836;23;20802;-75
2023/04/29 03:24:43;;;;;;;3.80;3.50;;;12.90;99.90;;;;;;6142007;23;21162;-75
2023/04/29 03:27:10;;;;;;;4.43;4.13;;;12.90;99.90;;;;;;6146180;23;20775;-74
2023/04/29 03:29:38;;;;;;;3.93;3.63;;;12.80;99.90;;;;;;6134314;23;20438;-75
2023/04/29 03:32:05;;;;;;;4.73;4.33;;;12.80;99.90;;;;;;6138221;23;20483;-75
2023/04/29 03:34:32;;;;;;;3.57;3.30;;;12.80;99.90;;;;;;6137476;23;20464;-74
2023/04/29 03:37:00;;;;;;;4.20;3.90;;;12.80;99.90;;;;;;6131326;23;20483;-74
2023/04/29 03:39:31;;;;;;;4.45;4.15;;;12.80;99.90;;;;;;6129627;23;20210;-74
2023/04/29 03:42:00;;;;;;;3.77;3.57;;;12.70;99.90;;;;;;6135460;23;20184;-74
2023/04/29 03:44:28;;;;;;;3.90;3.53;;;12.70;99.90;;;;;;6123398;23;20524;-74
2023/04/29 03:46:55;;;;;;;3.60;3.30;;;12.70;99.90;;;;;;6137289;23;20244;-74
2023/04/29 03:49:22;;;;;;;3.90;3.60;;;12.70;99.90;;;;;;6134289;23;20218;-74
2023/04/29 03:51:49;;;;;;;3.43;3.07;;;12.90;99.90;;;;;;6142799;23;20540;-74
2023/04/29 03:54:17;;;;;;;3.77;3.37;;;12.80;99.90;;;;;;6134652;23;20469;-74
2023/04/29 03:56:43;;;;;;;3.70;3.37;;;12.70;99.90;;;;;;6142019;23;20439;-74
2023/04/29 03:59:12;;;;;;;3.83;3.53;;;12.70;99.90;;;;;;6129822;23;20480;-74
2023/04/29 04:01:39;;;;;;;3.73;3.50;;;12.60;99.90;;;;;;6142885;23;20434;-74
2023/04/29 04:04:06;;;;;;;4.20;3.90;;;12.60;99.90;;;;;;6133033;23;20458;-75
2023/04/29 04:06:33;;;;;;;3.87;3.57;;;12.60;99.90;;;;;;6139068;23;20440;-74
2023/04/29 04:09:00;;;;;;;3.90;3.70;;;12.70;99.90;;;;;;6140315;23;20521;-74
2023/04/29 04:11:27;;;;;;;4.30;4.00;;;12.60;99.90;;;;;;6141069;23;20428;-74
2023/04/29 04:13:54;;;;;;;4.32;4.03;;;12.70;99.90;;;;;;6138123;23;20852;-74
2023/04/29 04:16:22;;;;;;;5.22;4.93;;;12.60;99.90;;;;;;6135395;23;20179;-74
2023/04/29 04:18:49;;;;;;;4.65;4.35;;;12.70;99.90;;;;;;6129356;23;20270;-74
2023/04/29 04:21:17;;;;;;;5.50;5.03;;;12.70;99.90;;;;;;6141415;23;20236;-74
2023/04/29 04:23:44;;;;;;;6.20;5.67;;;12.70;99.90;;;;;;6133082;23;20485;-74
2023/04/29 04:26:11;;;;;;;5.70;5.30;;;12.70;99.90;;;;;;6131673;23;20429;-75
2023/04/29 04:28:39;;;;;;;5.97;5.57;;;12.70;99.90;;;;;;6139226;23;20441;-74
2023/04/29 04:31:06;;;;;;;5.47;5.07;;;12.90;99.90;;;;;;6142164;23;20432;-74
2023/04/29 04:33:35;;;;;;;6.47;5.97;;;12.60;99.90;;;;;;6129479;23;20817;-74
2023/04/29 04:36:02;;;;;;;6.45;5.95;;;12.60;99.90;;;;;;6124465;23;20183;-74
2023/04/29 04:38:31;;;;;;;5.50;5.20;;;12.60;99.90;;;;;;6133703;23;20266;-74
2023/04/29 04:40:58;;;;;;;6.35;5.80;;;12.60;99.90;;;;;;6133798;23;20468;-74
2023/04/29 04:43:25;;;;;;;6.63;6.13;;;12.60;99.90;;;;;;6142215;23;20627;-74
2023/04/29 04:45:52;;;;;;;6.97;6.47;;;12.60;99.90;;;;;;6138785;23;20490;-74
2023/04/29 04:48:19;;;;;;;6.90;6.37;;;12.60;99.90;;;;;;6142700;23;20504;-73
2023/04/29 04:50:48;;;;;;;6.63;6.13;;;12.80;99.90;;;;;;6131626;23;20952;-74
2023/04/29 04:53:15;;;;;;;6.50;6.10;;;12.70;99.90;;;;;;6142147;23;20221;-73
2023/04/29 04:55:42;;;;;;;6.53;6.03;;;12.80;99.90;;;;;;6144383;23;20432;-74
2023/04/29 04:58:09;;;;;;;6.03;5.50;;;12.80;99.90;;;;;;6134039;23;20461;-74
2023/04/29 05:00:36;;;;;;;5.60;5.13;;;12.80;99.90;;;;;;6145340;23;20508;-74
2023/04/29 05:03:03;;;;;;;6.33;5.73;;;12.90;99.90;;;;;;6138434;23;20976;-74
2023/04/29 05:05:30;;;;;;;5.30;4.90;;;12.90;99.90;;;;;;6133007;23;20445;-74
2023/04/29 05:07:58;;;;;;;7.25;5.70;;;12.90;99.90;;;;;;6136416;23;20442;-74
2023/04/29 05:10:26;;;;;;;5.40;5.00;;;12.90;99.90;;;;;;6140377;23;20195;-74
2023/04/29 05:12:53;;;;;;;5.30;4.90;;;12.90;99.90;;;;;;6130961;23;20461;-75
2023/04/29 05:15:22;;;;;;;5.40;5.00;;;13.00;99.90;;;;;;6129779;23;20207;-74
2023/04/29 05:17:49;;;;;;;4.93;4.63;;;13.00;99.90;;;;;;6131241;23;21460;-75
2023/04/29 05:20:16;;;;;;;5.30;4.90;;;13.00;99.90;;;;;;6147597;23;20449;-74
2023/04/29 05:22:43;;;;;;;6.13;5.53;;;13.10;99.90;;;;;;6143701;23;20440;-76
2023/04/29 05:25:11;;;;;;;5.40;5.00;;;13.10;99.90;;;;;;6131100;23;20433;-75
2023/04/29 05:27:39;;;;;;;5.33;4.93;;;13.10;99.90;;;;;;6141606;23;20439;-75
2023/04/29 05:30:07;;;;;;;9.70;5.10;;;13.20;99.90;;;;;;6145978;23;21005;-75
2023/04/29 05:32:34;;;;;;;5.40;4.90;;;13.20;99.90;;;;;;6131792;23;20554;-74
2023/04/29 05:35:02;;;;;;;5.23;4.70;;;13.20;99.90;;;;;;6141189;23;20835;-74
2023/04/29 05:37:30;;;;;;;5.40;5.00;;;13.20;99.90;;;;;;6125139;23;20435;-74
2023/04/29 05:39:57;;;;;;;5.07;4.67;;;13.20;99.90;;;;;;6135587;23;20462;-76
2023/04/29 05:42:26;;;;;;;4.80;4.40;;;13.20;99.90;;;;;;6143080;23;20445;-75
2023/04/29 05:44:53;;;;;;;4.43;4.03;;;13.20;99.90;;;;;;6137198;23;20429;-75
2023/04/29 05:47:20;;;;;;;4.90;4.40;;;13.30;99.90;;;;;;6126916;23;20477;-74
2023/04/29 05:49:47;;;;;;;4.60;4.13;;;13.30;99.90;;;;;;6136840;23;20498;-75
2023/04/29 05:52:14;;;;;;;4.47;4.07;;;13.30;99.90;;;;;;6141358;23;20439;-75
2023/04/29 05:54:41;;;;;;;4.13;3.83;;;13.30;99.90;;;;;;6125740;23;20471;-75
2023/04/29 05:57:09;;;;;;;4.20;3.90;;;13.30;99.90;;;;;;6128891;23;20490;-76
2023/04/29 05:59:37;;;;;;;4.87;4.57;;;13.30;99.90;;;;;;6130272;23;20474;-75
2023/04/29 06:02:04;;;;;;;4.20;3.90;;;13.40;99.90;;;;;;6131027;23;20456;-75
2023/04/29 06:04:31;;;;;;;4.03;3.70;;;13.50;99.90;;;;;;6131261;23;21039;-75
2023/04/29 06:06:58;;;;;;;4.83;4.43;;;13.50;99.90;;;;;;6131271;23;20456;-75
2023/04/29 06:09:26;;;;;;;4.57;4.27;;;13.60;99.90;;;;;;6136363;23;21304;-75
2023/04/29 06:11:53;;;;;;;4.50;4.10;;;13.60;99.90;;;;;;6139827;23;20434;-75
2023/04/29 06:14:20;;;;;;;3.87;3.57;;;13.70;99.90;;;;;;6126133;23;20517;-74
2023/04/29 06:16:49;;;;;;;4.33;3.97;;;13.80;99.90;;;;;;6142869;23;20436;-75
2023/04/29 06:19:16;;;;;;;4.37;4.07;;;13.80;99.90;;;;;;6134773;23;20457;-74
2023/04/29 06:21:43;;;;;;;3.97;3.67;;;13.90;99.90;;;;;;6138330;23;20467;-74
2023/04/29 06:24:10;;;;;;;3.63;3.40;;;13.90;99.90;;;;;;6114734;23;20535;-74
2023/04/29 06:26:37;;;;;;;3.80;3.50;;;14.00;99.90;;;;;;6141552;23;20493;-74
2023/04/29 06:29:04;;;;;;;3.90;3.60;;;14.10;99.90;;;;;;6144205;23;20438;-74
2023/04/29 06:31:31;;;;;;;4.67;4.23;;;14.20;99.90;;;;;;6134661;23;20504;-74
2023/04/29 06:34:00;;;;;;;3.93;3.63;;;14.20;99.90;;;;;;6123420;23;20464;-74
2023/04/29 06:36:27;;;;;;;3.53;3.33;;;14.40;99.90;;;;;;6130960;23;20429;-75
2023/04/29 06:38:55;;;;;;;3.37;3.17;;;14.40;99.90;;;;;;6139080;23;20742;-75
2023/04/29 06:41:22;;;;;;;3.90;3.50;;;14.60;99.90;;;;;;6135385;23;20453;-72
2023/04/29 06:43:49;;;;;;;2.47;2.30;;;14.60;99.90;;;;;;6129469;23;20474;-72
2023/04/29 06:46:16;;;;;;;2.60;2.40;;;14.70;99.90;;;;;;6132904;23;20433;-72
2023/04/29 06:48:43;;;;;;;3.30;3.00;;;14.90;99.90;;;;;;6131579;23;20436;-76
2023/04/29 06:51:12;;;;;;;3.30;2.73;;;15.10;99.90;;;;;;6127723;23;20430;-79
2023/04/29 06:53:39;;;;;;;2.63;2.50;;;15.30;99.90;;;;;;6122822;23;20854;-74
2023/04/29 06:56:07;;;;;;;2.70;2.50;;;15.50;99.90;;;;;;6141472;23;21712;-75
2023/04/29 06:58:34;;;;;;;2.70;2.50;;;15.60;99.90;;;;;;6136491;23;20439;-75
2023/04/29 07:01:02;;;;;;;2.73;2.53;;;15.60;99.90;;;;;;6132487;23;20471;-75
2023/04/29 07:03:30;;;;;;;2.97;2.77;;;15.50;99.90;;;;;;6141005;23;20531;-72
2023/04/29 07:05:57;;;;;;;2.93;2.73;;;15.80;99.90;;;;;;6146698;23;20428;-79
2023/04/29 07:08:25;;;;;;;3.40;3.20;;;15.60;99.90;;;;;;6149558;23;20425;-72
2023/04/29 07:10:56;;;;;;;2.30;2.17;;;15.80;99.90;;;;;;6138792;23;20979;-74
2023/04/29 07:13:23;;;;;;;2.50;2.30;;;15.90;99.90;;;;;;6142915;23;20445;-74
2023/04/29 07:15:50;;;;;;;2.10;2.00;;;16.20;99.90;;;;;;6136301;23;20429;-73
2023/04/29 07:18:17;;;;;;;2.90;2.70;;;16.40;99.90;;;;;;6133110;23;20924;-74
2023/04/29 07:20:45;;;;;;;3.07;2.67;;;16.70;99.90;;;;;;6139830;23;20884;-74
2023/04/29 07:23:12;;;;;;;2.77;2.57;;;16.80;99.90;;;;;;6132187;23;20499;-75
2023/04/29 07:25:41;;;;;;;2.93;2.73;;;16.50;99.90;;;;;;6133286;23;20507;-74
2023/04/29 07:28:08;;;;;;;3.87;2.70;;;16.40;99.90;;;;;;6124871;23;20486;-74
2023/04/29 07:30:36;;;;;;;3.73;2.70;;;16.30;99.90;;;;;;6127195;23;20841;-74
2023/04/29 07:33:04;;;;;;;3.10;2.90;;;16.20;99.90;;;;;;6140168;23;20461;-74
2023/04/29 07:35:31;;;;;;;2.87;2.67;;;16.00;99.90;;;;;;6123506;23;20429;-74
2023/04/29 07:37:58;;;;;;;2.73;2.40;;;15.90;99.90;;;;;;6136804;23;20511;-74
2023/04/29 07:40:25;;;;;;;2.90;2.70;;;15.80;99.90;;;;;;6131980;23;20460;-73
2023/04/29 07:42:53;;;;;;;4.00;2.80;;;15.70;99.90;;;;;;6131726;23;20463;-74
2023/04/29 07:45:20;;;;;;;3.43;2.60;;;15.60;99.90;;;;;;6125985;23;20496;-74
2023/04/29 07:47:47;;;;;;;3.17;2.87;;;15.40;99.90;;;;;;6128129;23;21039;-74
2023/04/29 07:50:15;;;;;;;3.10;2.90;;;15.30;99.90;;;;;;6138799;23;20508;-73
2023/04/29 07:52:41;;;;;;;2.93;2.70;;;15.20;99.90;;;;;;6148555;23;20490;-74
2023/04/29 07:55:09;;;;;;;3.40;3.20;;;15.00;99.90;;;;;;6142199;23;20488;-74
2023/04/29 07:57:36;;;;;;;3.10;2.90;;;15.00;99.90;;;;;;6141545;23;20439;-74
2023/04/29 08:00:06;;;;;;;3.13;2.93;;;14.90;99.90;;;;;;6140129;23;20463;-74
2023/04/29 08:02:33;;;;;;;2.93;2.73;;;14.90;99.90;;;;;;6142338;23;20460;-74
2023/04/29 08:05:01;;;;;;;3.10;2.80;;;14.90;99.90;;;;;;6142515;23;20435;-74
2023/04/29 08:07:28;;;;;;;3.60;2.77;;;14.90;99.90;;;;;;6144676;23;20439;-74
2023/04/29 08:09:55;;;;;;;3.10;2.90;;;14.90;99.90;;;;;;6129481;23;20499;-74
2023/04/29 08:12:22;;;;;;;2.77;2.57;;;14.90;99.90;;;;;;6135524;23;20799;-74
2023/04/29 08:14:49;;;;;;;3.00;2.80;;;15.00;99.90;;;;;;6148209;23;20424;-74
2023/04/29 08:17:17;;;;;;;3.03;2.83;;;15.00;99.90;;;;;;6130387;23;21606;-74
2023/04/29 08:19:44;;;;;;;2.80;2.60;;;15.00;99.90;;;;;;6130699;23;20464;-74
2023/04/29 08:22:12;;;;;;;2.80;2.60;;;14.90;99.90;;;;;;6143407;23;20499;-74
2023/04/29 08:24:41;;;;;;;2.33;2.13;;;15.20;99.90;;;;;;6142512;23;20432;-73
2023/04/29 08:27:08;;;;;;;3.37;3.07;;;15.10;99.90;;;;;;6143444;23;20493;-74
2023/04/29 08:29:35;;;;;;;2.60;2.40;;;15.20;99.90;;;;;;6121653;23;20866;-74
2023/04/29 08:32:03;;;;;;;2.73;2.53;;;15.30;99.90;;;;;;6113973;23;20520;-73
2023/04/29 08:34:32;;;;;;;2.47;2.27;;;15.30;99.90;;;;;;6113257;23;20457;-73
2023/04/29 08:36:59;;;;;;;2.90;2.70;;;15.30;99.90;;;;;;6106718;23;21451;-74
2023/04/29 08:39:28;;;;;;;2.80;2.60;;;15.00;99.90;;;;;;6129060;23;20505;-84
2023/04/29 08:41:56;;;;;;;3.03;2.77;;;15.40;99.90;;;;;;6120283;23;20543;-75
2023/04/29 08:44:25;;;;;;;2.90;2.70;;;15.50;99.90;;;;;;6133674;23;20454;-74
2023/04/29 08:46:52;;;;;;;4.80;2.67;;;15.40;99.90;;;;;;6127087;23;20484;-74
2023/04/29 08:49:19;;;;;;;2.77;2.57;;;15.40;99.90;;;;;;6129646;23;20512;-74
2023/04/29 08:51:50;;;;;;;3.07;2.77;;;15.50;99.90;;;;;;6141599;23;20429;-74
2023/04/29 08:54:17;;;;;;;3.50;2.90;;;15.60;99.90;;;;;;6124231;23;20473;-74
2023/04/29 08:56:46;;;;;;;3.07;2.87;;;15.80;99.90;;;;;;6119246;23;20464;-75
2023/04/29 08:59:15;;;;;;;2.83;2.50;;;15.90;99.90;;;;;;6129541;23;20433;-75
2023/04/29 09:01:48;;;;;;;2.97;2.77;;;16.00;99.90;;;;;;6125509;23;20465;-74
2023/04/29 09:04:26;;;;;;;3.37;3.13;;;16.20;99.90;;;;;;6133820;23;20452;-75
2023/04/29 09:06:57;;;;;;;3.17;2.87;;;16.30;99.90;;;;;;6116141;23;20439;-74
2023/04/29 09:09:25;;;;;;;2.77;2.60;;;16.30;99.90;;;;;;6146952;23;20764;-74
2023/04/29 09:11:51;;;;;;;3.60;3.30;;;16.30;99.90;;;;;;6133559;23;20440;-74
2023/04/29 09:14:20;;;;;;;6.23;3.90;;;16.20;99.90;;;;;;6131866;23;20525;-74
2023/04/29 09:16:47;;;;;;;3.80;3.50;;;16.20;99.90;;;;;;6122728;23;20440;-74
2023/04/29 09:19:29;;;;;;;3.53;3.30;;;16.10;99.90;;;;;;6133431;23;20507;-74
2023/04/29 09:21:58;;;;;;;3.83;3.53;;;16.10;99.90;;;;;;6130993;23;20533;-73
2023/04/29 09:24:27;;;;;;;3.70;3.50;;;16.10;99.90;;;;;;6132037;23;21007;-73
2023/04/29 09:26:55;;;;;;;3.70;3.50;;;16.10;99.90;;;;;;6128099;23;20436;-73
2023/04/29 09:29:22;;;;;;;3.57;3.37;;;16.10;99.90;;;;;;6136248;23;20785;-73
2023/04/29 09:31:52;;;;;;;3.60;3.30;;;16.10;99.90;;;;;;6117565;23;20429;-73
2023/04/29 09:34:31;;;;;;;3.47;3.27;;;16.10;99.90;;;;;;6136692;23;20440;-74
2023/04/29 09:36:59;;;;;;;3.37;3.03;;;16.10;99.90;;;;;;6117233;23;20445;-73
2023/04/29 09:39:26;;;;;;;3.40;3.10;;;16.20;99.90;;;;;;6122583;23;20480;-73
2023/04/29 09:42:01;;;;;;;3.40;3.10;;;16.30;99.90;;;;;;6138266;23;20460;-74
2023/04/29 09:44:30;;;;;;;3.10;2.90;;;16.30;99.90;;;;;;6137195;23;20438;-73
2023/04/29 09:47:01;;;;;;;3.10;2.90;;;16.30;99.90;;;;;;6120367;23;20455;-73
2023/04/29 09:49:29;;;;;;;3.40;3.20;;;16.30;99.90;;;;;;6130884;23;20532;-73
2023/04/29 09:51:59;;;;;;;4.70;2.87;;;16.30;99.90;;;;;;6136085;23;21086;-74
2023/04/29 09:54:29;;;;;;;3.03;2.83;;;16.30;99.90;;;;;;6133522;23;20837;-74
2023/04/29 09:57:01;;;;;;;3.33;3.13;;;16.40;99.90;;;;;;6143602;23;21010;-74
2023/04/29 09:59:28;;;;;;;3.30;3.10;;;16.50;99.90;;;;;;6140182;23;20429;-74
2023/04/29 10:01:56;;;;;;;3.20;3.00;;;16.60;99.90;;;;;;6136386;23;20509;-74
2023/04/29 10:04:25;;;;;;;2.60;2.50;;;16.70;99.90;;;;;;6127550;23;20437;-74
2023/04/29 10:06:54;;;;;;;4.73;2.93;;;16.70;99.90;;;;;;6120113;23;20612;-74
2023/04/29 10:09:23;;;;;;;4.67;2.73;;;17.10;99.90;;;;;;6115414;23;20499;-74
2023/04/29 10:11:52;;;;;;;3.27;3.07;;;16.80;99.90;;;;;;6121920;23;20830;-74
2023/04/29 10:14:21;;;;;;;3.70;3.40;;;16.90;99.90;;;;;;6135482;23;20544;-74
2023/04/29 10:16:49;;;;;;;3.30;3.10;;;16.90;99.90;;;;;;6121545;23;20440;-73
2023/04/29 10:19:24;;;;;;;3.47;3.27;;;16.80;99.90;;;;;;6128523;23;20432;-74
2023/04/29 10:21:54;;;;;;;3.20;3.00;;;16.80;99.90;;;;;;6131421;23;20526;-75
2023/04/29 10:24:25;;;;;;;3.97;3.67;;;16.70;99.90;;;;;;6139553;23;20785;-74
2023/04/29 10:26:53;;;;;;;3.67;3.37;;;16.70;99.90;;;;;;6134829;23;20921;-74
2023/04/29 10:29:22;;;;;;;3.73;3.33;;;16.70;99.90;;;;;;6129014;23;20443;-75
2023/04/29 10:31:50;;;;;;;3.67;3.47;;;16.80;99.90;;;;;;6129678;23;20533;-74
2023/04/29 10:34:17;;;;;;;3.70;3.40;;;16.90;99.90;;;;;;6137226;23;20790;-75
2023/04/29 10:36:46;;;;;;;3.73;3.43;;;17.00;99.90;;;;;;6123733;23;20433;-75
2023/04/29 10:39:21;;;;;;;3.60;3.30;;;17.00;99.90;;;;;;6138732;23;20512;-74
2023/04/29 10:41:51;;;;;;;3.73;3.53;;;17.30;99.90;;;;;;6128997;23;20555;-75
2023/04/29 10:44:18;;;;;;;3.60;3.00;;;17.30;99.90;;;;;;6122358;23;20426;-74
2023/04/29 10:46:45;;;;;;;3.60;3.30;;;17.40;99.90;;;;;;6122596;23;20436;-75
2023/04/29 10:49:13;;;;;;;3.63;3.00;;;17.80;99.90;;;;;;6126795;23;20759;-74
2023/04/29 10:51:41;;;;;;;3.40;3.20;;;17.50;99.90;;;;;;6129564;23;20466;-74
2023/04/29 10:54:10;;;;;;;2.80;2.60;;;17.80;99.90;;;;;;6129979;23;20436;-73
2023/04/29 10:56:39;;;;;;;2.60;2.40;;;17.80;99.90;;;;;;6129991;23;20436;-72
2023/04/29 10:59:11;;;;;;;2.80;2.60;;;18.20;99.90;;;;;;6131484;23;21011;-72
2023/04/29 11:01:43;;;;;;;2.60;2.40;;;18.60;99.90;;;;;;6127361;23;20530;-78
2023/04/29 11:04:11;;;;;;;3.40;3.10;;;18.60;99.90;;;;;;6133916;23;20466;-75
2023/04/29 11:06:40;;;;;;;2.97;2.77;;;19.00;99.90;;;;;;6136433;23;20430;-82
2023/04/29 11:09:10;;;;;;;3.80;3.50;;;19.40;99.90;;;;;;6130802;23;20432;-75
2023/04/29 11:11:49;;;;;;;3.77;3.47;;;19.60;99.90;;;;;;6132350;23;20533;-75
2023/04/29 11:14:23;;;;;;;4.00;3.70;;;19.50;99.90;;;;;;6134593;23;21005;-74
2023/04/29 11:16:56;;;;;;;6.77;6.07;;;19.50;99.90;;;;;;6124113;23;20448;-74
2023/04/29 11:19:25;;;;;;;9.13;6.90;;;19.50;99.90;;;;;;6127642;23;20439;-74
2023/04/29 11:22:08;;;;;;;6.43;5.83;;;19.60;99.90;;;;;;6128972;23;20551;-75
2023/04/29 11:24:36;;;;;;;7.50;6.70;;;19.80;99.90;;;;;;6123509;23;20437;-74
2023/04/29 11:27:04;;;;;;;5.83;5.33;;;20.00;99.90;;;;;;6129761;23;20788;-75
2023/04/29 11:29:36;;;;;;;7.60;6.90;;;20.30;99.90;;;;;;6133436;23;20864;-76
2023/04/29 11:32:03;;;;;;;6.00;5.40;;;20.80;99.90;;;;;;6132005;23;20464;-76
2023/04/29 11:34:33;;;;;;;4.90;4.50;;;21.40;99.90;;;;;;6123269;23;20440;-75
2023/04/29 11:37:00;;;;;;;4.93;4.53;;;22.00;99.90;;;;;;6144392;23;20814;-75
2023/04/29 11:39:28;;;;;;;6.03;5.10;;;22.30;99.90;;;;;;6142070;23;20570;-75
2023/04/29 11:42:03;;;;;;;4.87;4.57;;;22.40;99.90;;;;;;6147490;23;20794;-75
2023/04/29 11:44:33;;;;;;;5.13;4.73;;;22.30;99.90;;;;;;6134410;23;20433;-73
2023/04/29 11:47:03;;;;;;;5.33;4.97;;;21.90;99.90;;;;;;6134528;23;20440;-74
2023/04/29 11:49:31;;;;;;;5.40;5.00;;;21.60;99.90;;;;;;6132344;23;20507;-74
2023/04/29 11:51:59;;;;;;;4.97;4.60;;;21.60;99.90;;;;;;6129964;23;20467;-74
2023/04/29 11:54:26;;;;;;;4.90;4.50;;;21.40;99.90;;;;;;6131714;23;21156;-74
2023/04/29 11:56:54;;;;;;;4.90;4.50;;;21.20;99.90;;;;;;6127859;23;20436;-76
2023/04/29 11:59:22;;;;;;;5.17;4.77;;;20.90;99.90;;;;;;6123724;23;20441;-73
2023/04/29 12:01:49;;;;;;;5.07;4.67;;;20.50;99.90;;;;;;6129281;23;20466;-74
2023/04/29 12:04:18;;;;;;;5.23;4.60;;;20.00;99.90;;;;;;6132545;23;20435;-74
2023/04/29 12:06:45;;;;;;;5.33;4.93;;;19.60;99.90;;;;;;6143213;23;20824;-74
2023/04/29 12:09:14;;;;;;;5.60;5.20;;;19.30;99.90;;;;;;6143995;23;20487;-74
2023/04/29 12:11:41;;;;;;;5.90;5.50;;;19.20;99.90;;;;;;6147402;23;20421;-74
2023/04/29 12:14:09;;;;;;;4.87;4.47;;;19.00;99.90;;;;;;6139167;23;20433;-74
2023/04/29 12:16:36;;;;;;;4.60;4.20;;;18.90;99.90;;;;;;6139377;23;20456;-74
2023/04/29 12:19:04;;;;;;;5.50;5.10;;;18.80;99.90;;;;;;6122816;23;20929;-73
2023/04/29 12:21:34;;;;;;;5.50;5.03;;;18.70;99.90;;;;;;6126662;23;20457;-80
2023/04/29 12:24:03;;;;;;;5.10;4.70;;;18.60;99.90;;;;;;6121247;23;20496;-74
2023/04/29 12:26:32;;;;;;;5.60;5.10;;;18.80;99.90;;;;;;6121086;23;20516;-74
2023/04/29 12:29:00;;;;;;;5.63;5.23;;;19.00;99.90;;;;;;6116234;23;20941;-74
2023/04/29 12:31:34;;;;;;;5.57;5.17;;;19.10;99.90;;;;;;6125577;23;20885;-74
2023/04/29 12:34:03;;;;;;;5.30;4.80;;;19.10;99.90;;;;;;6120979;23;20820;-74
2023/04/29 12:36:31;;;;;;;5.30;4.80;;;19.10;99.90;;;;;;6128156;23;20454;-74
2023/04/29 12:38:59;;;;;;;8.70;5.90;;;19.00;99.90;;;;;;6133073;23;20918;-74
2023/04/29 12:41:41;;;;;;;5.47;5.07;;;18.90;99.90;;;;;;6140733;23;20436;-74
2023/04/29 12:44:10;;;;;;;4.97;4.57;;;18.70;99.90;;;;;;6135811;23;20433;-75
2023/04/29 12:46:38;;;;;;;5.27;4.77;;;18.60;99.90;;;;;;6120392;23;20443;-75
2023/04/29 12:49:06;;;;;;;5.40;5.00;;;18.50;99.90;;;;;;6135915;23;20439;-75
2023/04/29 12:51:35;;;;;;;5.30;4.90;;;18.60;99.90;;;;;;6140760;23;20434;-75
2023/04/29 12:54:05;;;;;;;6.47;6.07;;;18.60;99.90;;;;;;6136375;23;20448;-75